sensor_id;sensor_type;location;lat;lon;timestamp;P1;durP1;ratioP1;P2;durP2;ratioP2
66741;SDS011;53654;54.152;19.432;2023-04-03T00:01:18;2.50;;;1.40;;
66741;SDS011;53654;54.152;19.432;2023-04-03T00:03:47;3.60;;;1.50;;
66741;SDS011;53654;54.152;19.432;2023-04-03T00:06:15;1.70;;;1.20;;
66741;SDS011;53654;54.152;19.432;2023-04-03T00:08:43;2.90;;;1.30;;
66741;SDS011;53654;54.152;19.432;2023-04-03T00:11:12;2.70;;;1.40;;
66741;SDS011;53654;54.152;19.432;2023-04-03T00:13:40;2.40;;;1.30;;
66741;SDS011;53654;54.152;19.432;2023-04-03T00:16:08;1.80;;;1.10;;
66741;SDS011;53654;54.152;19.432;2023-04-03T00:18:38;2.80;;;1.40;;
66741;SDS011;53654;54.152;19.432;2023-04-03T00:21:08;2.50;;;1.60;;
66741;SDS011;53654;54.152;19.432;2023-04-03T00:23:37;4.10;;;1.70;;
66741;SDS011;53654;54.152;19.432;2023-04-03T00:26:06;2.60;;;1.20;;
66741;SDS011;53654;54.152;19.432;2023-04-03T00:28:34;1.90;;;1.30;;
66741;SDS011;53654;54.152;19.432;2023-04-03T00:31:02;1.40;;;1.00;;
66741;SDS011;53654;54.152;19.432;2023-04-03T00:33:31;2.90;;;1.20;;
66741;SDS011;53654;54.152;19.432;2023-04-03T00:35:59;2.10;;;1.10;;
66741;SDS011;53654;54.152;19.432;2023-04-03T00:38:33;2.10;;;1.20;;
66741;SDS011;53654;54.152;19.432;2023-04-03T00:41:01;2.30;;;1.20;;
66741;SDS011;53654;54.152;19.432;2023-04-03T00:43:30;2.00;;;1.10;;
66741;SDS011;53654;54.152;19.432;2023-04-03T00:45:58;2.70;;;1.20;;
66741;SDS011;53654;54.152;19.432;2023-04-03T00:48:29;2.60;;;1.30;;
66741;SDS011;53654;54.152;19.432;2023-04-03T00:51:00;2.90;;;1.40;;
66741;SDS011;53654;54.152;19.432;2023-04-03T00:53:31;2.50;;;1.50;;
66741;SDS011;53654;54.152;19.432;2023-04-03T00:56:13;3.10;;;2.00;;
66741;SDS011;53654;54.152;19.432;2023-04-03T00:58:54;3.60;;;1.80;;
66741;SDS011;53654;54.152;19.432;2023-04-03T01:01:29;3.30;;;1.70;;
66741;SDS011;53654;54.152;19.432;2023-04-03T01:03:59;2.80;;;1.60;;
66741;SDS011;53654;54.152;19.432;2023-04-03T01:06:29;3.10;;;1.40;;
66741;SDS011;53654;54.152;19.432;2023-04-03T01:09:08;3.70;;;1.40;;
66741;SDS011;53654;54.152;19.432;2023-04-03T01:11:36;2.70;;;1.50;;
66741;SDS011;53654;54.152;19.432;2023-04-03T01:14:04;2.70;;;1.30;;
66741;SDS011;53654;54.152;19.432;2023-04-03T01:16:33;2.90;;;1.30;;
66741;SDS011;53654;54.152;19.432;2023-04-03T01:19:03;1.80;;;1.30;;
66741;SDS011;53654;54.152;19.432;2023-04-03T01:26:54;2.90;;;1.30;;
66741;SDS011;53654;54.152;19.432;2023-04-03T01:32:37;2.60;;;1.30;;
66741;SDS011;53654;54.152;19.432;2023-04-03T01:35:07;3.60;;;1.30;;
66741;SDS011;53654;54.152;19.432;2023-04-03T01:37:36;2.30;;;1.20;;
66741;SDS011;53654;54.152;19.432;2023-04-03T01:40:05;2.80;;;1.40;;
66741;SDS011;53654;54.152;19.432;2023-04-03T01:42:34;2.60;;;1.30;;
66741;SDS011;53654;54.152;19.432;2023-04-03T01:45:03;2.60;;;1.30;;
66741;SDS011;53654;54.152;19.432;2023-04-03T01:47:31;4.20;;;1.40;;
66741;SDS011;53654;54.152;19.432;2023-04-03T01:50:00;2.70;;;1.30;;
66741;SDS011;53654;54.152;19.432;2023-04-03T01:52:29;2.40;;;1.20;;
66741;SDS011;53654;54.152;19.432;2023-04-03T01:54:58;2.30;;;1.40;;
66741;SDS011;53654;54.152;19.432;2023-04-03T01:57:26;2.10;;;1.20;;
66741;SDS011;53654;54.152;19.432;2023-04-03T01:59:54;3.60;;;1.50;;
66741;SDS011;53654;54.152;19.432;2023-04-03T02:02:23;2.50;;;1.20;;
66741;SDS011;53654;54.152;19.432;2023-04-03T02:04:52;2.10;;;1.30;;
66741;SDS011;53654;54.152;19.432;2023-04-03T02:07:20;2.50;;;1.30;;
66741;SDS011;53654;54.152;19.432;2023-04-03T02:09:48;2.30;;;1.30;;
66741;SDS011;53654;54.152;19.432;2023-04-03T02:12:16;2.80;;;1.60;;
66741;SDS011;53654;54.152;19.432;2023-04-03T02:14:44;3.30;;;1.30;;
66741;SDS011;53654;54.152;19.432;2023-04-03T02:17:12;3.10;;;1.40;;
66741;SDS011;53654;54.152;19.432;2023-04-03T02:19:40;2.70;;;1.30;;
66741;SDS011;53654;54.152;19.432;2023-04-03T02:22:08;3.00;;;1.30;;
66741;SDS011;53654;54.152;19.432;2023-04-03T02:24:36;2.90;;;1.50;;
66741;SDS011;53654;54.152;19.432;2023-04-03T02:27:06;2.80;;;1.40;;
66741;SDS011;53654;54.152;19.432;2023-04-03T02:29:34;2.60;;;1.30;;
66741;SDS011;53654;54.152;19.432;2023-04-03T02:32:03;2.70;;;1.40;;
66741;SDS011;53654;54.152;19.432;2023-04-03T02:34:31;2.90;;;1.40;;
66741;SDS011;53654;54.152;19.432;2023-04-03T02:37:00;2.40;;;1.20;;
66741;SDS011;53654;54.152;19.432;2023-04-03T02:39:28;3.00;;;1.50;;
66741;SDS011;53654;54.152;19.432;2023-04-03T02:41:58;2.30;;;1.40;;
66741;SDS011;53654;54.152;19.432;2023-04-03T02:44:27;3.50;;;1.40;;
66741;SDS011;53654;54.152;19.432;2023-04-03T02:46:55;3.00;;;1.60;;
66741;SDS011;53654;54.152;19.432;2023-04-03T02:49:23;2.90;;;1.30;;
66741;SDS011;53654;54.152;19.432;2023-04-03T02:51:51;2.60;;;1.50;;
66741;SDS011;53654;54.152;19.432;2023-04-03T02:54:19;2.90;;;1.50;;
66741;SDS011;53654;54.152;19.432;2023-04-03T02:56:50;2.70;;;1.50;;
66741;SDS011;53654;54.152;19.432;2023-04-03T02:59:19;3.30;;;1.30;;
66741;SDS011;53654;54.152;19.432;2023-04-03T03:01:47;3.10;;;1.40;;
66741;SDS011;53654;54.152;19.432;2023-04-03T03:04:15;2.40;;;1.30;;
66741;SDS011;53654;54.152;19.432;2023-04-03T03:06:44;2.80;;;1.40;;
66741;SDS011;53654;54.152;19.432;2023-04-03T03:09:12;3.10;;;1.50;;
66741;SDS011;53654;54.152;19.432;2023-04-03T03:11:42;2.60;;;1.30;;
66741;SDS011;53654;54.152;19.432;2023-04-03T03:14:10;2.70;;;1.60;;
66741;SDS011;53654;54.152;19.432;2023-04-03T03:16:38;3.00;;;1.60;;
66741;SDS011;53654;54.152;19.432;2023-04-03T03:19:07;2.10;;;1.20;;
66741;SDS011;53654;54.152;19.432;2023-04-03T03:21:35;2.10;;;1.50;;
66741;SDS011;53654;54.152;19.432;2023-04-03T03:24:03;2.70;;;1.60;;
66741;SDS011;53654;54.152;19.432;2023-04-03T03:26:33;2.80;;;1.70;;
66741;SDS011;53654;54.152;19.432;2023-04-03T03:29:02;4.40;;;1.90;;
66741;SDS011;53654;54.152;19.432;2023-04-03T03:31:30;2.90;;;1.60;;
66741;SDS011;53654;54.152;19.432;2023-04-03T03:33:59;2.60;;;1.70;;
66741;SDS011;53654;54.152;19.432;2023-04-03T03:36:27;2.80;;;1.40;;
66741;SDS011;53654;54.152;19.432;2023-04-03T03:38:55;1.70;;;1.30;;
66741;SDS011;53654;54.152;19.432;2023-04-03T03:41:24;2.80;;;1.50;;
66741;SDS011;53654;54.152;19.432;2023-04-03T03:43:52;2.40;;;1.50;;
66741;SDS011;53654;54.152;19.432;2023-04-03T03:46:20;3.50;;;1.70;;
66741;SDS011;53654;54.152;19.432;2023-04-03T03:48:48;2.00;;;1.50;;
66741;SDS011;53654;54.152;19.432;2023-04-03T03:51:17;2.30;;;1.40;;
66741;SDS011;53654;54.152;19.432;2023-04-03T03:53:45;1.60;;;1.40;;
66741;SDS011;53654;54.152;19.432;2023-04-03T03:56:15;2.40;;;1.40;;
66741;SDS011;53654;54.152;19.432;2023-04-03T03:58:44;2.00;;;1.40;;
66741;SDS011;53654;54.152;19.432;2023-04-03T04:01:12;3.10;;;1.40;;
66741;SDS011;53654;54.152;19.432;2023-04-03T04:03:44;2.40;;;1.60;;
66741;SDS011;53654;54.152;19.432;2023-04-03T04:06:16;2.20;;;1.30;;
66741;SDS011;53654;54.152;19.432;2023-04-03T04:08:45;2.90;;;1.40;;
66741;SDS011;53654;54.152;19.432;2023-04-03T04:11:13;2.70;;;1.40;;
66741;SDS011;53654;54.152;19.432;2023-04-03T04:13:42;2.50;;;1.30;;
66741;SDS011;53654;54.152;19.432;2023-04-03T04:16:11;2.80;;;1.30;;
66741;SDS011;53654;54.152;19.432;2023-04-03T04:18:39;2.10;;;1.30;;
66741;SDS011;53654;54.152;19.432;2023-04-03T04:21:07;2.50;;;1.30;;
66741;SDS011;53654;54.152;19.432;2023-04-03T04:23:38;2.80;;;1.20;;
66741;SDS011;53654;54.152;19.432;2023-04-03T04:26:06;2.40;;;1.40;;
66741;SDS011;53654;54.152;19.432;2023-04-03T04:28:35;2.40;;;1.60;;
66741;SDS011;53654;54.152;19.432;2023-04-03T04:31:04;3.70;;;1.50;;
66741;SDS011;53654;54.152;19.432;2023-04-03T04:33:32;3.20;;;1.90;;
66741;SDS011;53654;54.152;19.432;2023-04-03T04:36:02;1.80;;;1.40;;
66741;SDS011;53654;54.152;19.432;2023-04-03T04:38:31;3.20;;;1.60;;
66741;SDS011;53654;54.152;19.432;2023-04-03T04:40:59;2.80;;;1.70;;
66741;SDS011;53654;54.152;19.432;2023-04-03T04:43:28;2.60;;;1.60;;
66741;SDS011;53654;54.152;19.432;2023-04-03T04:46:02;2.20;;;1.70;;
66741;SDS011;53654;54.152;19.432;2023-04-03T04:48:34;3.60;;;1.90;;
66741;SDS011;53654;54.152;19.432;2023-04-03T04:51:03;3.70;;;1.90;;
66741;SDS011;53654;54.152;19.432;2023-04-03T04:53:33;3.50;;;1.80;;
66741;SDS011;53654;54.152;19.432;2023-04-03T04:56:01;2.90;;;1.40;;
66741;SDS011;53654;54.152;19.432;2023-04-03T04:58:30;2.10;;;1.60;;
66741;SDS011;53654;54.152;19.432;2023-04-03T05:00:59;3.60;;;1.80;;
66741;SDS011;53654;54.152;19.432;2023-04-03T05:03:28;2.70;;;1.70;;
66741;SDS011;53654;54.152;19.432;2023-04-03T05:05:57;1.60;;;1.50;;
66741;SDS011;53654;54.152;19.432;2023-04-03T05:08:26;1.90;;;1.60;;
66741;SDS011;53654;54.152;19.432;2023-04-03T05:10:54;3.10;;;1.50;;
66741;SDS011;53654;54.152;19.432;2023-04-03T05:13:24;1.60;;;1.40;;
66741;SDS011;53654;54.152;19.432;2023-04-03T05:15:52;2.70;;;1.70;;
66741;SDS011;53654;54.152;19.432;2023-04-03T05:18:20;1.60;;;1.20;;
66741;SDS011;53654;54.152;19.432;2023-04-03T05:20:49;1.70;;;1.40;;
66741;SDS011;53654;54.152;19.432;2023-04-03T05:23:20;2.70;;;1.40;;
66741;SDS011;53654;54.152;19.432;2023-04-03T05:25:49;2.10;;;1.30;;
66741;SDS011;53654;54.152;19.432;2023-04-03T05:28:17;1.30;;;1.20;;
66741;SDS011;53654;54.152;19.432;2023-04-03T05:30:52;2.20;;;1.20;;
66741;SDS011;53654;54.152;19.432;2023-04-03T05:33:24;1.70;;;1.40;;
66741;SDS011;53654;54.152;19.432;2023-04-03T05:35:56;3.20;;;1.40;;
66741;SDS011;53654;54.152;19.432;2023-04-03T05:38:26;2.00;;;1.70;;
66741;SDS011;53654;54.152;19.432;2023-04-03T05:40:57;2.00;;;1.40;;
66741;SDS011;53654;54.152;19.432;2023-04-03T05:43:25;2.80;;;1.80;;
66741;SDS011;53654;54.152;19.432;2023-04-03T05:45:54;1.50;;;1.40;;
66741;SDS011;53654;54.152;19.432;2023-04-03T05:48:22;3.00;;;1.60;;
66741;SDS011;53654;54.152;19.432;2023-04-03T05:50:51;2.40;;;1.40;;
66741;SDS011;53654;54.152;19.432;2023-04-03T05:53:25;1.70;;;1.20;;
66741;SDS011;53654;54.152;19.432;2023-04-03T05:55:58;1.90;;;1.30;;
66741;SDS011;53654;54.152;19.432;2023-04-03T05:58:26;2.80;;;1.40;;
66741;SDS011;53654;54.152;19.432;2023-04-03T06:00:55;3.00;;;1.30;;
66741;SDS011;53654;54.152;19.432;2023-04-03T06:03:23;1.50;;;1.20;;
66741;SDS011;53654;54.152;19.432;2023-04-03T06:05:52;1.80;;;1.30;;
66741;SDS011;53654;54.152;19.432;2023-04-03T06:08:20;2.20;;;1.50;;
66741;SDS011;53654;54.152;19.432;2023-04-03T06:10:48;2.40;;;1.50;;
66741;SDS011;53654;54.152;19.432;2023-04-03T06:13:16;2.60;;;1.90;;
66741;SDS011;53654;54.152;19.432;2023-04-03T06:15:45;2.70;;;1.40;;
66741;SDS011;53654;54.152;19.432;2023-04-03T06:18:14;2.30;;;1.20;;
66741;SDS011;53654;54.152;19.432;2023-04-03T06:20:42;1.50;;;1.00;;
66741;SDS011;53654;54.152;19.432;2023-04-03T06:23:10;2.10;;;1.30;;
66741;SDS011;53654;54.152;19.432;2023-04-03T06:25:39;3.10;;;1.30;;
66741;SDS011;53654;54.152;19.432;2023-04-03T06:28:08;2.10;;;1.40;;
66741;SDS011;53654;54.152;19.432;2023-04-03T06:30:37;3.70;;;1.80;;
66741;SDS011;53654;54.152;19.432;2023-04-03T06:33:06;7.00;;;3.20;;
66741;SDS011;53654;54.152;19.432;2023-04-03T06:35:34;6.60;;;2.40;;
66741;SDS011;53654;54.152;19.432;2023-04-03T06:38:02;2.60;;;1.40;;
66741;SDS011;53654;54.152;19.432;2023-04-03T06:40:35;3.00;;;1.90;;
66741;SDS011;53654;54.152;19.432;2023-04-03T06:43:04;2.40;;;1.60;;
66741;SDS011;53654;54.152;19.432;2023-04-03T06:45:32;4.10;;;2.10;;
66741;SDS011;53654;54.152;19.432;2023-04-03T06:48:01;2.70;;;1.60;;
66741;SDS011;53654;54.152;19.432;2023-04-03T06:50:29;2.00;;;1.30;;
66741;SDS011;53654;54.152;19.432;2023-04-03T06:52:57;1.90;;;1.30;;
66741;SDS011;53654;54.152;19.432;2023-04-03T06:55:25;1.40;;;1.20;;
66741;SDS011;53654;54.152;19.432;2023-04-03T06:57:54;2.50;;;1.50;;
66741;SDS011;53654;54.152;19.432;2023-04-03T07:00:22;4.20;;;1.60;;
66741;SDS011;53654;54.152;19.432;2023-04-03T07:02:50;2.20;;;1.70;;
66741;SDS011;53654;54.152;19.432;2023-04-03T07:05:19;2.40;;;1.40;;
66741;SDS011;53654;54.152;19.432;2023-04-03T07:07:47;1.70;;;1.10;;
66741;SDS011;53654;54.152;19.432;2023-04-03T07:10:17;2.10;;;1.20;;
66741;SDS011;53654;54.152;19.432;2023-04-03T07:12:46;1.50;;;1.10;;
66741;SDS011;53654;54.152;19.432;2023-04-03T07:15:14;1.50;;;1.00;;
66741;SDS011;53654;54.152;19.432;2023-04-03T07:17:42;2.50;;;1.20;;
66741;SDS011;53654;54.152;19.432;2023-04-03T07:20:11;1.80;;;1.20;;
66741;SDS011;53654;54.152;19.432;2023-04-03T07:22:39;1.50;;;1.10;;
66741;SDS011;53654;54.152;19.432;2023-04-03T07:25:08;1.70;;;1.10;;
66741;SDS011;53654;54.152;19.432;2023-04-03T07:27:36;2.30;;;1.10;;
66741;SDS011;53654;54.152;19.432;2023-04-03T07:30:05;1.60;;;1.20;;
66741;SDS011;53654;54.152;19.432;2023-04-03T07:32:34;1.70;;;1.10;;
66741;SDS011;53654;54.152;19.432;2023-04-03T07:35:03;2.10;;;1.20;;
66741;SDS011;53654;54.152;19.432;2023-04-03T07:37:31;2.70;;;1.10;;
66741;SDS011;53654;54.152;19.432;2023-04-03T07:40:00;2.80;;;1.40;;
66741;SDS011;53654;54.152;19.432;2023-04-03T07:42:30;2.00;;;1.10;;
66741;SDS011;53654;54.152;19.432;2023-04-03T07:44:59;1.90;;;1.00;;
66741;SDS011;53654;54.152;19.432;2023-04-03T07:47:27;2.60;;;1.30;;
66741;SDS011;53654;54.152;19.432;2023-04-03T07:49:56;3.00;;;1.50;;
66741;SDS011;53654;54.152;19.432;2023-04-03T07:52:24;1.60;;;1.00;;
66741;SDS011;53654;54.152;19.432;2023-04-03T07:54:53;1.60;;;1.00;;
66741;SDS011;53654;54.152;19.432;2023-04-03T07:57:21;3.50;;;1.20;;
66741;SDS011;53654;54.152;19.432;2023-04-03T07:59:49;1.80;;;1.20;;
66741;SDS011;53654;54.152;19.432;2023-04-03T08:02:17;1.50;;;1.00;;
66741;SDS011;53654;54.152;19.432;2023-04-03T08:04:45;1.80;;;1.00;;
66741;SDS011;53654;54.152;19.432;2023-04-03T08:07:13;3.30;;;1.00;;
66741;SDS011;53654;54.152;19.432;2023-04-03T08:09:42;2.60;;;1.40;;
66741;SDS011;53654;54.152;19.432;2023-04-03T08:12:10;3.70;;;1.20;;
66741;SDS011;53654;54.152;19.432;2023-04-03T08:14:39;1.80;;;1.00;;
66741;SDS011;53654;54.152;19.432;2023-04-03T08:17:07;2.40;;;1.00;;
66741;SDS011;53654;54.152;19.432;2023-04-03T08:19:39;2.50;;;1.20;;
66741;SDS011;53654;54.152;19.432;2023-04-03T08:22:07;2.40;;;1.20;;
66741;SDS011;53654;54.152;19.432;2023-04-03T08:24:36;1.40;;;1.00;;
66741;SDS011;53654;54.152;19.432;2023-04-03T08:27:07;1.60;;;1.10;;
66741;SDS011;53654;54.152;19.432;2023-04-03T08:29:35;1.30;;;1.10;;
66741;SDS011;53654;54.152;19.432;2023-04-03T08:32:05;1.70;;;1.00;;
66741;SDS011;53654;54.152;19.432;2023-04-03T08:34:33;1.70;;;1.20;;
66741;SDS011;53654;54.152;19.432;2023-04-03T08:37:04;1.90;;;0.90;;
66741;SDS011;53654;54.152;19.432;2023-04-03T08:39:33;1.30;;;1.20;;
66741;SDS011;53654;54.152;19.432;2023-04-03T08:42:02;2.00;;;1.10;;
66741;SDS011;53654;54.152;19.432;2023-04-03T08:50:31;2.10;;;0.90;;
66741;SDS011;53654;54.152;19.432;2023-04-03T08:53:05;2.20;;;1.10;;
66741;SDS011;53654;54.152;19.432;2023-04-03T09:03:19;2.30;;;1.10;;
66741;SDS011;53654;54.152;19.432;2023-04-03T09:14:14;1.80;;;1.10;;
66741;SDS011;53654;54.152;19.432;2023-04-03T09:19:35;1.60;;;1.30;;
66741;SDS011;53654;54.152;19.432;2023-04-03T09:24:47;1.60;;;1.10;;
66741;SDS011;53654;54.152;19.432;2023-04-03T09:27:21;2.10;;;1.10;;
66741;SDS011;53654;54.152;19.432;2023-04-03T09:29:49;1.70;;;1.00;;
66741;SDS011;53654;54.152;19.432;2023-04-03T09:32:26;3.90;;;1.40;;
66741;SDS011;53654;54.152;19.432;2023-04-03T09:40:38;2.10;;;1.10;;
66741;SDS011;53654;54.152;19.432;2023-04-03T09:45:54;1.90;;;0.90;;
66741;SDS011;53654;54.152;19.432;2023-04-03T09:48:23;2.50;;;1.30;;
66741;SDS011;53654;54.152;19.432;2023-04-03T09:50:57;2.40;;;1.20;;
66741;SDS011;53654;54.152;19.432;2023-04-03T09:53:28;1.80;;;1.10;;
66741;SDS011;53654;54.152;19.432;2023-04-03T09:56:18;1.60;;;1.10;;
66741;SDS011;53654;54.152;19.432;2023-04-03T09:58:51;1.30;;;0.90;;
66741;SDS011;53654;54.152;19.432;2023-04-03T10:01:36;1.90;;;1.00;;
66741;SDS011;53654;54.152;19.432;2023-04-03T10:04:10;1.80;;;1.10;;
66741;SDS011;53654;54.152;19.432;2023-04-03T10:06:47;1.60;;;1.10;;
66741;SDS011;53654;54.152;19.432;2023-04-03T10:09:23;2.00;;;1.20;;
66741;SDS011;53654;54.152;19.432;2023-04-03T10:34:52;3.00;;;1.50;;
66741;SDS011;53654;54.152;19.432;2023-04-03T10:37:40;1.50;;;1.40;;
66741;SDS011;53654;54.152;19.432;2023-04-03T10:54:24;2.90;;;1.70;;
66741;SDS011;53654;54.152;19.432;2023-04-03T10:57:01;2.10;;;1.20;;
66741;SDS011;53654;54.152;19.432;2023-04-03T11:00:14;3.40;;;2.00;;
66741;SDS011;53654;54.152;19.432;2023-04-03T11:02:38;2.10;;;1.50;;
66741;SDS011;53654;54.152;19.432;2023-04-03T11:05:29;2.70;;;1.40;;
66741;SDS011;53654;54.152;19.432;2023-04-03T11:08:07;2.20;;;1.10;;
66741;SDS011;53654;54.152;19.432;2023-04-03T11:10:48;1.70;;;1.20;;
66741;SDS011;53654;54.152;19.432;2023-04-03T11:13:22;1.70;;;1.10;;
66741;SDS011;53654;54.152;19.432;2023-04-03T11:15:58;2.90;;;1.50;;
66741;SDS011;53654;54.152;19.432;2023-04-03T11:18:49;2.30;;;1.30;;
66741;SDS011;53654;54.152;19.432;2023-04-03T11:21:21;3.50;;;1.30;;
66741;SDS011;53654;54.152;19.432;2023-04-03T11:23:57;2.30;;;1.40;;
66741;SDS011;53654;54.152;19.432;2023-04-03T11:26:30;1.70;;;1.40;;
66741;SDS011;53654;54.152;19.432;2023-04-03T11:29:06;2.00;;;1.20;;
66741;SDS011;53654;54.152;19.432;2023-04-03T11:31:54;2.30;;;1.60;;
66741;SDS011;53654;54.152;19.432;2023-04-03T11:34:49;2.30;;;1.60;;
66741;SDS011;53654;54.152;19.432;2023-04-03T11:42:46;3.00;;;1.70;;
66741;SDS011;53654;54.152;19.432;2023-04-03T11:47:58;1.60;;;1.50;;
66741;SDS011;53654;54.152;19.432;2023-04-03T11:55:41;2.80;;;1.20;;
66741;SDS011;53654;54.152;19.432;2023-04-03T12:01:06;2.70;;;1.30;;
66741;SDS011;53654;54.152;19.432;2023-04-03T12:09:01;1.80;;;1.40;;
66741;SDS011;53654;54.152;19.432;2023-04-03T12:11:30;1.50;;;1.20;;
66741;SDS011;53654;54.152;19.432;2023-04-03T12:16:33;2.50;;;1.30;;
66741;SDS011;53654;54.152;19.432;2023-04-03T12:35:40;2.50;;;1.30;;
66741;SDS011;53654;54.152;19.432;2023-04-03T12:38:30;1.40;;;1.20;;
66741;SDS011;53654;54.152;19.432;2023-04-03T12:41:30;2.40;;;1.40;;
66741;SDS011;53654;54.152;19.432;2023-04-03T12:47:16;2.30;;;1.90;;
66741;SDS011;53654;54.152;19.432;2023-04-03T12:49:50;2.30;;;1.90;;
66741;SDS011;53654;54.152;19.432;2023-04-03T12:55:17;2.80;;;1.40;;
66741;SDS011;53654;54.152;19.432;2023-04-03T12:57:46;1.30;;;1.20;;
66741;SDS011;53654;54.152;19.432;2023-04-03T13:00:22;1.70;;;1.10;;
66741;SDS011;53654;54.152;19.432;2023-04-03T13:02:57;1.30;;;1.20;;
66741;SDS011;53654;54.152;19.432;2023-04-03T13:05:26;2.50;;;1.50;;
66741;SDS011;53654;54.152;19.432;2023-04-03T13:07:58;2.40;;;1.50;;
66741;SDS011;53654;54.152;19.432;2023-04-03T13:10:29;2.20;;;1.30;;
66741;SDS011;53654;54.152;19.432;2023-04-03T13:13:08;1.40;;;1.30;;
66741;SDS011;53654;54.152;19.432;2023-04-03T13:15:41;2.90;;;1.30;;
66741;SDS011;53654;54.152;19.432;2023-04-03T13:20:50;1.90;;;1.70;;
66741;SDS011;53654;54.152;19.432;2023-04-03T13:23:19;2.30;;;1.50;;
66741;SDS011;53654;54.152;19.432;2023-04-03T13:25:48;2.60;;;1.60;;
66741;SDS011;53654;54.152;19.432;2023-04-03T13:28:22;2.40;;;1.50;;
66741;SDS011;53654;54.152;19.432;2023-04-03T13:30:56;2.20;;;1.70;;
66741;SDS011;53654;54.152;19.432;2023-04-03T13:33:32;2.30;;;1.60;;
66741;SDS011;53654;54.152;19.432;2023-04-03T13:36:06;2.10;;;1.40;;
66741;SDS011;53654;54.152;19.432;2023-04-03T13:38:57;3.20;;;1.60;;
66741;SDS011;53654;54.152;19.432;2023-04-03T13:41:32;2.10;;;1.40;;
66741;SDS011;53654;54.152;19.432;2023-04-03T13:49:41;2.00;;;1.40;;
66741;SDS011;53654;54.152;19.432;2023-04-03T13:54:52;2.40;;;1.90;;
66741;SDS011;53654;54.152;19.432;2023-04-03T13:57:26;2.00;;;1.70;;
66741;SDS011;53654;54.152;19.432;2023-04-03T13:59:56;1.90;;;1.70;;
66741;SDS011;53654;54.152;19.432;2023-04-03T14:02:31;2.70;;;1.90;;
66741;SDS011;53654;54.152;19.432;2023-04-03T14:05:01;3.00;;;2.00;;
66741;SDS011;53654;54.152;19.432;2023-04-03T14:07:31;2.40;;;1.80;;
66741;SDS011;53654;54.152;19.432;2023-04-03T14:10:00;2.50;;;1.80;;
66741;SDS011;53654;54.152;19.432;2023-04-03T14:12:32;2.90;;;1.70;;
66741;SDS011;53654;54.152;19.432;2023-04-03T14:15:04;2.40;;;1.60;;
66741;SDS011;53654;54.152;19.432;2023-04-03T14:17:43;1.50;;;1.40;;
66741;SDS011;53654;54.152;19.432;2023-04-03T14:20:14;1.70;;;1.50;;
66741;SDS011;53654;54.152;19.432;2023-04-03T14:22:44;2.70;;;1.80;;
66741;SDS011;53654;54.152;19.432;2023-04-03T14:25:12;2.20;;;1.70;;
66741;SDS011;53654;54.152;19.432;2023-04-03T14:27:42;1.80;;;1.50;;
66741;SDS011;53654;54.152;19.432;2023-04-03T14:30:15;1.60;;;1.50;;
66741;SDS011;53654;54.152;19.432;2023-04-03T14:32:46;2.50;;;1.60;;
66741;SDS011;53654;54.152;19.432;2023-04-03T14:35:17;2.20;;;1.80;;
66741;SDS011;53654;54.152;19.432;2023-04-03T14:37:46;2.90;;;1.70;;
66741;SDS011;53654;54.152;19.432;2023-04-03T14:40:18;2.50;;;1.70;;
66741;SDS011;53654;54.152;19.432;2023-04-03T14:42:49;2.60;;;1.80;;
66741;SDS011;53654;54.152;19.432;2023-04-03T14:45:17;2.60;;;1.90;;
66741;SDS011;53654;54.152;19.432;2023-04-03T14:47:47;1.90;;;1.70;;
66741;SDS011;53654;54.152;19.432;2023-04-03T14:50:23;1.80;;;1.50;;
66741;SDS011;53654;54.152;19.432;2023-04-03T14:52:55;3.00;;;2.00;;
66741;SDS011;53654;54.152;19.432;2023-04-03T14:55:26;3.00;;;1.70;;
66741;SDS011;53654;54.152;19.432;2023-04-03T14:57:55;3.40;;;1.90;;
66741;SDS011;53654;54.152;19.432;2023-04-03T15:00:23;1.60;;;1.50;;
66741;SDS011;53654;54.152;19.432;2023-04-03T15:02:51;2.10;;;1.70;;
66741;SDS011;53654;54.152;19.432;2023-04-03T15:05:20;2.80;;;1.80;;
66741;SDS011;53654;54.152;19.432;2023-04-03T15:07:57;2.50;;;2.10;;
66741;SDS011;53654;54.152;19.432;2023-04-03T15:10:29;3.10;;;2.40;;
66741;SDS011;53654;54.152;19.432;2023-04-03T15:12:58;4.30;;;3.20;;
66741;SDS011;53654;54.152;19.432;2023-04-03T15:15:28;5.00;;;3.70;;
66741;SDS011;53654;54.152;19.432;2023-04-03T15:17:57;3.00;;;2.00;;
66741;SDS011;53654;54.152;19.432;2023-04-03T15:20:27;2.40;;;2.00;;
66741;SDS011;53654;54.152;19.432;2023-04-03T15:22:58;4.10;;;2.30;;
66741;SDS011;53654;54.152;19.432;2023-04-03T15:25:32;3.50;;;2.20;;
66741;SDS011;53654;54.152;19.432;2023-04-03T15:28:00;2.60;;;2.10;;
66741;SDS011;53654;54.152;19.432;2023-04-03T15:30:28;2.30;;;2.00;;
66741;SDS011;53654;54.152;19.432;2023-04-03T15:32:57;3.60;;;2.50;;
66741;SDS011;53654;54.152;19.432;2023-04-03T15:35:25;3.50;;;2.70;;
66741;SDS011;53654;54.152;19.432;2023-04-03T15:37:54;3.30;;;2.60;;
66741;SDS011;53654;54.152;19.432;2023-04-03T15:40:22;2.90;;;2.10;;
66741;SDS011;53654;54.152;19.432;2023-04-03T15:42:50;3.70;;;1.90;;
66741;SDS011;53654;54.152;19.432;2023-04-03T15:45:20;2.20;;;1.80;;
66741;SDS011;53654;54.152;19.432;2023-04-03T15:47:49;3.00;;;2.20;;
66741;SDS011;53654;54.152;19.432;2023-04-03T15:50:18;3.40;;;2.20;;
66741;SDS011;53654;54.152;19.432;2023-04-03T15:52:46;2.60;;;2.10;;
66741;SDS011;53654;54.152;19.432;2023-04-03T15:55:14;5.90;;;3.70;;
66741;SDS011;53654;54.152;19.432;2023-04-03T15:57:42;4.20;;;3.80;;
66741;SDS011;53654;54.152;19.432;2023-04-03T16:00:11;4.70;;;3.70;;
66741;SDS011;53654;54.152;19.432;2023-04-03T16:02:40;4.80;;;3.60;;
66741;SDS011;53654;54.152;19.432;2023-04-03T16:05:09;5.50;;;4.40;;
66741;SDS011;53654;54.152;19.432;2023-04-03T16:07:39;8.60;;;5.40;;
66741;SDS011;53654;54.152;19.432;2023-04-03T16:10:08;8.40;;;6.80;;
66741;SDS011;53654;54.152;19.432;2023-04-03T16:12:37;8.40;;;6.00;;
66741;SDS011;53654;54.152;19.432;2023-04-03T16:15:06;9.00;;;6.30;;
66741;SDS011;53654;54.152;19.432;2023-04-03T16:17:35;6.40;;;5.00;;
66741;SDS011;53654;54.152;19.432;2023-04-03T16:20:06;9.10;;;6.30;;
66741;SDS011;53654;54.152;19.432;2023-04-03T16:22:36;8.80;;;6.00;;
66741;SDS011;53654;54.152;19.432;2023-04-03T16:25:05;6.80;;;4.30;;
66741;SDS011;53654;54.152;19.432;2023-04-03T16:27:35;10.10;;;8.40;;
66741;SDS011;53654;54.152;19.432;2023-04-03T16:30:04;15.70;;;12.10;;
66741;SDS011;53654;54.152;19.432;2023-04-03T16:32:35;10.50;;;7.90;;
66741;SDS011;53654;54.152;19.432;2023-04-03T16:35:05;7.90;;;5.60;;
66741;SDS011;53654;54.152;19.432;2023-04-03T16:37:33;5.00;;;3.70;;
66741;SDS011;53654;54.152;19.432;2023-04-03T16:40:01;2.80;;;2.50;;
66741;SDS011;53654;54.152;19.432;2023-04-03T16:42:30;3.70;;;2.50;;
66741;SDS011;53654;54.152;19.432;2023-04-03T16:44:59;3.00;;;2.40;;
66741;SDS011;53654;54.152;19.432;2023-04-03T16:47:30;3.20;;;2.30;;
66741;SDS011;53654;54.152;19.432;2023-04-03T16:49:58;3.50;;;2.90;;
66741;SDS011;53654;54.152;19.432;2023-04-03T16:52:27;2.70;;;2.40;;
66741;SDS011;53654;54.152;19.432;2023-04-03T16:54:57;3.00;;;2.70;;
66741;SDS011;53654;54.152;19.432;2023-04-03T16:57:26;3.00;;;2.40;;
66741;SDS011;53654;54.152;19.432;2023-04-03T16:59:55;3.30;;;2.50;;
66741;SDS011;53654;54.152;19.432;2023-04-03T17:02:23;2.60;;;2.40;;
66741;SDS011;53654;54.152;19.432;2023-04-03T17:04:53;3.20;;;2.90;;
66741;SDS011;53654;54.152;19.432;2023-04-03T17:07:22;4.40;;;3.40;;
66741;SDS011;53654;54.152;19.432;2023-04-03T17:09:52;3.30;;;2.70;;
66741;SDS011;53654;54.152;19.432;2023-04-03T17:12:21;3.70;;;2.70;;